Погода Маховинона 2 недели

Поморское воеводство, Польша

19 июля-01 августа
  • 19июля
    Сегодня
    +11°
    +23°
    Небольшая облачность
    ВремяПогодаТемператураВлажностьДавлениеВетер, м/сВероятность осадков
    02:00Ясно и безоблачно+14°C95 %765 мм2.1 м/с2 %
    05:00Ясно и безоблачно+13°C95 %765 мм2.4 м/с2 %
    08:00Практически безоблачно+18°C84 %765 мм3.0 м/с2 %
    11:00Небольшая облачность+21°C65 %765 мм4.4 м/с1 %
    14:00Небольшая облачность+22°C58 %764 мм4.7 м/с2 %
    17:00Ясно и безоблачно+21°C64 %763 мм3.6 м/с2 %
    20:00Ясно и безоблачно+19°C77 %763 мм1.6 м/с2 %
    23:00Ясно и безоблачно+15°C92 %762 мм1.6 м/с2 %
  • 20июля
    Суббота
    +14°
    +24°
    Ясно и безоблачно
    ВремяПогодаТемператураВлажностьДавлениеВетер, м/сВероятность осадков
    02:00Ясно и безоблачно+12°C99 %762 мм1.9 м/с2 %
    05:00Облачно с прояснениями+11°C100 %761 мм1.6 м/с2 %
    08:00Ясно и безоблачно+17°C87 %760 мм1.5 м/с2 %
    11:00Ясно и безоблачно+22°C69 %760 мм2.1 м/с2 %
    14:00Ясно и безоблачно+23°C61 %759 мм2.5 м/с2 %
    17:00Ясно и безоблачно+22°C61 %758 мм2.7 м/с2 %
    20:00Ясно и безоблачно+20°C77 %758 мм1.3 м/с2 %
    23:00Небольшая облачность+15°C94 %757 мм2.0 м/с2 %
  • 21июля
    Воскресенье
    +16°
    +27°
    Ясно и безоблачно
    ВремяПогодаТемператураВлажностьДавлениеВетер, м/сВероятность осадков
    02:00Небольшая облачность+15°C95 %757 мм1.9 м/с2 %
    05:00Ясно и безоблачно+14°C97 %757 мм1.7 м/с2 %
    08:00Ясно и безоблачно+19°C83 %756 мм1.8 м/с2 %
    11:00Ясно и безоблачно+25°C58 %756 мм1.6 м/с2 %
    14:00Ясно и безоблачно+27°C48 %756 мм0.7 м/с2 %
    17:00Практически безоблачно+26°C52 %755 мм2.2 м/с2 %
    20:00Ясно и безоблачно+23°C69 %755 мм4.7 м/с2 %
    23:00Практически безоблачно+19°C71 %755 мм4.3 м/с2 %
  • 22июля
    Понедельник
    +15°
    +26°
    Облачно с прояснениями, небольшой дождь
    ВремяПогодаТемператураВлажностьДавлениеВетер, м/сВероятность осадков
    02:00Небольшая облачность+18°C76 %755 мм3.3 м/с2 %
    05:00Ясно и безоблачно+17°C85 %755 мм3.3 м/с2 %
    08:00Ясно и безоблачно+21°C75 %755 мм2.5 м/с9 %
    11:00Практически безоблачно+25°C53 %755 мм2.9 м/с24 %
    14:00Облачно с прояснениями, небольшой дождь+26°C43 %755 мм1.7 м/с54 %
    17:00Пасмурно, небольшой дождь+21°C71 %756 мм4.2 м/с58 %
    20:00Пасмурно, ливень+19°C91 %757 мм3.5 м/с41 %
    23:00Пасмурно, ливень+18°C96 %757 мм3.7 м/с31 %
  • 23июля
    Вторник
    +14°
    +21°
    Ясно и безоблачно
    ВремяПогодаТемператураВлажностьДавлениеВетер, м/сВероятность осадков
    02:00Облачно с прояснениями+18°C92 %758 мм4.5 м/с33 %
    05:00Практически безоблачно+16°C95 %758 мм3.0 м/с33 %
    08:00Ясно и безоблачно+18°C79 %759 мм4.1 м/с37 %
    11:00Ясно и безоблачно+20°C66 %759 мм4.4 м/с47 %
    14:00Ясно и безоблачно+21°C57 %759 мм4.0 м/с49 %
    17:00Ясно и безоблачно+20°C62 %759 мм3.1 м/с37 %
    20:00Ясно и безоблачно+19°C78 %759 мм0.4 м/с21 %
    23:00Ясно и безоблачно+16°C86 %758 мм1.5 м/с12 %
Мы используем cookies
Соглашаюсь